createdAt,value
2023-01-19T00:00:02.261Z,2.47
2023-01-19T00:02:30.182Z,3.03
2023-01-19T00:04:56.728Z,2.20
2023-01-19T00:07:23.285Z,2.73
2023-01-19T00:09:49.811Z,3.73
2023-01-19T00:12:17.359Z,3.23
2023-01-19T00:14:43.902Z,5.27
2023-01-19T00:17:10.474Z,5.23
2023-01-19T00:19:38.318Z,3.13
2023-01-19T00:22:05.985Z,5.30
2023-01-19T00:24:32.595Z,4.50
2023-01-19T00:26:59.503Z,3.00
2023-01-19T00:29:27.611Z,2.63
2023-01-19T00:31:54.097Z,3.90
2023-01-19T00:34:20.653Z,3.87
2023-01-19T00:36:48.484Z,3.30
2023-01-19T00:39:15.495Z,3.10
2023-01-19T00:42:00.564Z,2.50
2023-01-19T00:44:27.117Z,4.23
2023-01-19T00:46:53.620Z,2.90
2023-01-19T00:49:20.307Z,4.23
2023-01-19T00:51:48.155Z,3.07
2023-01-19T00:54:14.792Z,2.80
2023-01-19T00:56:41.526Z,3.43
2023-01-19T00:59:08.199Z,2.67
2023-01-19T01:01:45.112Z,2.63
2023-01-19T01:04:13.540Z,2.20
2023-01-19T01:06:40.152Z,2.50
2023-01-19T01:09:11.905Z,2.60
2023-01-19T01:11:38.667Z,2.63
2023-01-19T01:14:05.391Z,2.67
2023-01-19T01:16:32.692Z,4.03
2023-01-19T01:18:59.470Z,2.83
2023-01-19T01:21:26.031Z,3.10
2023-01-19T01:23:52.548Z,2.80
2023-01-19T01:26:20.497Z,2.80
2023-01-19T01:28:47.001Z,2.73
2023-01-19T01:31:13.606Z,2.40
2023-01-19T01:33:41.904Z,2.70
2023-01-19T01:36:09.271Z,2.60
2023-01-19T01:38:35.782Z,2.63
2023-01-19T01:41:02.421Z,2.40
2023-01-19T01:43:43.902Z,2.57
2023-01-19T01:46:11.718Z,2.77
2023-01-19T01:48:39.996Z,2.30
2023-01-19T01:51:26.386Z,2.90
2023-01-19T01:54:03.153Z,2.50
2023-01-19T01:56:35.030Z,2.33
2023-01-19T01:59:07.542Z,2.47
2023-01-19T02:01:53.419Z,2.70
2023-01-19T02:04:20.803Z,2.93
2023-01-19T02:07:06.911Z,2.23
2023-01-19T02:09:54.747Z,2.40
2023-01-19T02:12:41.029Z,2.57
2023-01-19T02:15:16.650Z,2.57
2023-01-19T02:17:43.456Z,2.47
2023-01-19T02:20:11.297Z,2.30
2023-01-19T02:22:44.417Z,2.70
2023-01-19T02:25:12.399Z,2.70
2023-01-19T02:27:39.465Z,4.10
2023-01-19T02:30:07.752Z,2.40
2023-01-19T02:32:34.288Z,2.93
2023-01-19T02:35:01.004Z,2.40
2023-01-19T02:37:34.176Z,2.53
2023-01-19T02:40:02.792Z,2.20
2023-01-19T02:42:36.312Z,2.60
2023-01-19T02:45:08.943Z,2.70
2023-01-19T02:47:39.877Z,2.43
2023-01-19T02:50:39.223Z,2.30
2023-01-19T02:53:17.794Z,2.70
2023-01-19T02:55:52.887Z,2.17
2023-01-19T02:58:28.356Z,2.23
2023-01-19T03:01:08.498Z,2.43
2023-01-19T03:03:42.484Z,3.70
2023-01-19T03:06:18.946Z,3.70
2023-01-19T03:08:52.433Z,2.50
2023-01-19T03:11:19.113Z,2.30
2023-01-19T03:13:52.376Z,2.17
2023-01-19T03:16:22.658Z,2.43
2023-01-19T03:18:54.111Z,2.40
2023-01-19T03:21:24.946Z,2.43
2023-01-19T03:23:53.448Z,2.50
2023-01-19T03:26:25.662Z,2.07
2023-01-19T03:28:56.202Z,2.20
2023-01-19T03:31:26.079Z,2.20
2023-01-19T03:33:55.506Z,2.50
2023-01-19T03:36:27.205Z,2.25
2023-01-19T03:38:57.947Z,2.10
2023-01-19T03:41:25.896Z,2.87
2023-01-19T03:43:55.450Z,2.30
2023-01-19T03:46:23.986Z,2.13
2023-01-19T03:48:51.711Z,2.13
2023-01-19T03:51:19.505Z,2.60
2023-01-19T03:53:46.696Z,3.20
2023-01-19T03:56:18.188Z,4.67
2023-01-19T03:58:45.002Z,5.07
2023-01-19T04:01:14.884Z,3.10
2023-01-19T04:03:41.539Z,5.20
2023-01-19T04:06:08.505Z,5.10
2023-01-19T04:08:35.140Z,5.60
2023-01-19T04:11:01.905Z,3.73
2023-01-19T04:13:29.975Z,2.87
2023-01-19T04:16:00.101Z,3.10
2023-01-19T04:18:28.362Z,3.97
2023-01-19T04:20:55.369Z,2.60
2023-01-19T04:23:21.910Z,5.50
2023-01-19T04:25:48.464Z,2.60
2023-01-19T04:28:15.609Z,2.63
2023-01-19T04:30:42.231Z,2.60
2023-01-19T04:33:08.894Z,6.07
2023-01-19T04:35:36.727Z,6.30
2023-01-19T04:38:03.270Z,7.60
2023-01-19T04:40:29.791Z,15.13
2023-01-19T04:42:56.290Z,7.40
2023-01-19T04:45:22.772Z,6.47
2023-01-19T04:47:50.397Z,3.67
2023-01-19T04:50:17.598Z,3.27
2023-01-19T04:52:45.809Z,3.00
2023-01-19T04:55:12.688Z,3.27
2023-01-19T04:57:39.315Z,3.10
2023-01-19T05:00:07.411Z,2.90
2023-01-19T05:02:34.255Z,3.00
2023-01-19T05:05:01.977Z,3.63
2023-01-19T05:07:28.668Z,2.80
2023-01-19T05:09:56.591Z,3.30
2023-01-19T05:12:23.179Z,3.30
2023-01-19T05:14:49.717Z,3.30
2023-01-19T05:17:16.284Z,2.97
2023-01-19T05:19:42.947Z,3.10
2023-01-19T05:22:09.644Z,2.93
2023-01-19T05:24:36.178Z,3.30
2023-01-19T05:27:04.230Z,3.40
2023-01-19T05:29:30.781Z,2.93
2023-01-19T05:31:58.102Z,3.07
2023-01-19T05:34:24.858Z,3.30
2023-01-19T05:36:51.508Z,3.50
2023-01-19T05:39:18.278Z,3.23
2023-01-19T05:41:45.537Z,3.13
2023-01-19T05:44:13.840Z,3.30
2023-01-19T05:46:40.906Z,3.10
2023-01-19T05:49:07.630Z,3.20
2023-01-19T05:51:45.123Z,3.30
2023-01-19T05:54:13.510Z,3.10
2023-01-19T05:56:40.086Z,3.23
2023-01-19T05:59:07.039Z,2.90
2023-01-19T06:01:38.769Z,2.93
2023-01-19T06:04:06.353Z,3.37
2023-01-19T06:06:32.953Z,3.23
2023-01-19T06:08:59.557Z,3.07
2023-01-19T06:11:26.207Z,3.23
2023-01-19T06:13:52.830Z,3.60
2023-01-19T06:16:19.545Z,3.20
2023-01-19T06:18:47.477Z,3.23
2023-01-19T06:21:14.367Z,3.10
2023-01-19T06:23:41.457Z,3.10
2023-01-19T06:26:08.049Z,2.70
2023-01-19T06:28:34.750Z,2.93
2023-01-19T06:31:01.703Z,3.50
2023-01-19T06:33:28.647Z,2.93
2023-01-19T06:35:56.581Z,3.10
2023-01-19T06:38:23.459Z,2.80
2023-01-19T06:40:54.592Z,3.20
2023-01-19T06:43:21.807Z,3.17
2023-01-19T06:45:48.746Z,3.30
2023-01-19T06:48:15.813Z,2.90
2023-01-19T06:50:45.236Z,2.80
2023-01-19T06:53:13.576Z,3.20
2023-01-19T06:55:40.143Z,3.50
2023-01-19T06:58:07.247Z,3.03
2023-01-19T07:00:33.827Z,2.87
2023-01-19T07:03:00.866Z,2.80
2023-01-19T07:05:27.945Z,2.80
2023-01-19T07:07:57.130Z,3.47
2023-01-19T07:10:25.143Z,3.45
2023-01-19T07:12:51.961Z,3.03
2023-01-19T07:15:19.742Z,3.10
2023-01-19T07:17:46.326Z,2.97
2023-01-19T07:20:14.332Z,3.20
2023-01-19T07:22:41.769Z,3.43
2023-01-19T07:25:09.248Z,3.30
2023-01-19T07:27:37.136Z,2.90
2023-01-19T07:30:04.552Z,3.43
2023-01-19T07:32:31.138Z,4.83
2023-01-19T07:34:57.679Z,2.73
2023-01-19T07:37:24.235Z,3.13
2023-01-19T07:39:50.783Z,2.70
2023-01-19T07:42:17.368Z,3.37
2023-01-19T07:44:45.269Z,3.30
2023-01-19T07:47:12.638Z,2.77
2023-01-19T07:49:39.499Z,3.00
2023-01-19T07:52:06.069Z,2.80
2023-01-19T07:54:32.813Z,3.13
2023-01-19T07:57:00.749Z,3.30
2023-01-19T07:59:27.512Z,3.33
2023-01-19T08:01:55.598Z,2.93
2023-01-19T08:04:22.360Z,3.60
2023-01-19T08:06:49.024Z,3.03
2023-01-19T08:09:15.549Z,2.93
2023-01-19T08:11:42.073Z,3.17
2023-01-19T08:14:09.012Z,2.83
2023-01-19T08:16:35.655Z,3.13
2023-01-19T08:19:03.858Z,3.17
2023-01-19T08:21:30.588Z,2.80
2023-01-19T08:23:57.812Z,3.33
2023-01-19T08:26:29.224Z,3.03
2023-01-19T08:28:58.010Z,3.13
2023-01-19T08:31:25.446Z,3.57
2023-01-19T08:33:52.081Z,2.97
2023-01-19T08:36:20.223Z,3.33
2023-01-19T08:38:47.645Z,3.17
2023-01-19T08:41:16.483Z,3.00
2023-01-19T08:43:43.491Z,4.45
2023-01-19T08:46:10.168Z,3.60
2023-01-19T08:48:39.164Z,3.50
2023-01-19T08:51:06.396Z,3.15
2023-01-19T08:53:34.654Z,3.53
2023-01-19T08:56:02.277Z,3.47
2023-01-19T08:58:29.381Z,3.57
2023-01-19T09:00:56.089Z,3.30
2023-01-19T09:03:22.953Z,3.87
2023-01-19T09:05:50.365Z,3.77
2023-01-19T09:08:17.231Z,3.70
2023-01-19T09:10:50.563Z,3.27
2023-01-19T09:13:20.047Z,3.30
2023-01-19T09:15:47.068Z,3.08
2023-01-19T09:18:15.352Z,3.67
2023-01-19T09:20:45.231Z,3.63
2023-01-19T09:23:13.785Z,3.50
2023-01-19T09:25:41.453Z,3.77
2023-01-19T09:28:10.733Z,4.63
2023-01-19T09:30:38.796Z,3.88
2023-01-19T09:33:07.385Z,15.43
2023-01-19T09:35:34.666Z,6.00
2023-01-19T09:38:01.638Z,4.57
2023-01-19T09:40:29.036Z,5.27
2023-01-19T09:42:59.252Z,4.93
2023-01-19T09:45:34.560Z,5.27
2023-01-19T09:48:02.556Z,5.03
2023-01-19T09:50:35.676Z,5.27
2023-01-19T09:53:13.680Z,5.17
2023-01-19T09:55:41.915Z,5.50
2023-01-19T09:58:12.276Z,5.47
2023-01-19T10:00:42.845Z,5.87
2023-01-19T10:03:15.565Z,5.67
2023-01-19T10:05:46.951Z,6.13
2023-01-19T10:08:22.248Z,5.50
2023-01-19T10:10:53.109Z,6.60
2023-01-19T10:13:32.510Z,6.37
2023-01-19T10:16:10.250Z,5.80
2023-01-19T10:18:48.621Z,6.40
2023-01-19T10:21:19.127Z,5.70
2023-01-19T10:23:50.428Z,6.27
2023-01-19T10:26:20.226Z,10.17
2023-01-19T10:28:49.145Z,6.00
2023-01-19T10:31:20.884Z,5.80
2023-01-19T10:33:48.789Z,5.90
2023-01-19T10:36:20.200Z,6.33
2023-01-19T10:38:47.820Z,6.70
2023-01-19T10:41:18.806Z,6.90
2023-01-19T10:43:46.749Z,5.57
2023-01-19T10:46:24.720Z,6.10
2023-01-19T10:48:53.401Z,6.37
2023-01-19T10:51:20.647Z,5.77
2023-01-19T10:53:56.966Z,6.20
2023-01-19T10:56:25.599Z,6.60
2023-01-19T10:58:52.376Z,7.00
2023-01-19T11:01:23.671Z,7.27
2023-01-19T11:03:50.534Z,8.13
2023-01-19T11:06:35.682Z,7.70
2023-01-19T11:09:16.537Z,8.10
2023-01-19T11:11:46.005Z,7.60
2023-01-19T11:14:14.726Z,7.53
2023-01-19T11:16:47.658Z,7.47
2023-01-19T11:19:28.409Z,8.17
2023-01-19T11:22:09.575Z,7.80
2023-01-19T11:24:38.378Z,6.83
2023-01-19T11:27:05.133Z,7.10
2023-01-19T11:29:32.000Z,7.40
2023-01-19T11:32:11.724Z,7.57
2023-01-19T11:37:23.561Z,6.53
2023-01-19T11:39:52.472Z,6.60
2023-01-19T11:42:19.830Z,6.60
2023-01-19T11:44:53.893Z,6.90
2023-01-19T11:47:27.116Z,6.03
2023-01-19T11:50:00.957Z,6.90
2023-01-19T11:52:33.576Z,6.40
2023-01-19T11:55:05.450Z,6.20
2023-01-19T11:57:32.048Z,6.40
2023-01-19T12:00:03.516Z,5.80
2023-01-19T12:02:42.923Z,6.00
2023-01-19T12:05:15.420Z,6.43
2023-01-19T12:07:45.148Z,5.20
2023-01-19T12:12:44.363Z,5.77
2023-01-19T12:15:24.401Z,5.73
2023-01-19T12:17:56.255Z,5.20
2023-01-19T12:20:27.944Z,5.53
2023-01-19T12:23:02.857Z,5.47
2023-01-19T12:25:41.473Z,6.67
2023-01-19T12:28:13.308Z,6.40
2023-01-19T12:30:40.390Z,6.07
2023-01-19T12:33:38.856Z,7.27
2023-01-19T12:36:10.481Z,5.77
2023-01-19T12:38:43.133Z,5.47
2023-01-19T12:41:22.326Z,5.87
2023-01-19T12:44:09.505Z,6.40
2023-01-19T12:46:38.921Z,6.03
2023-01-19T12:49:10.109Z,5.15
2023-01-19T12:51:36.787Z,5.20
2023-01-19T12:54:07.514Z,5.83
2023-01-19T12:56:36.879Z,6.20
2023-01-19T12:59:04.629Z,5.07
2023-01-19T13:01:31.386Z,6.13
2023-01-19T13:04:02.351Z,5.57
2023-01-19T13:07:08.397Z,4.93
2023-01-19T13:09:36.898Z,5.80
2023-01-19T13:12:25.192Z,5.27
2023-01-19T13:15:26.731Z,5.27
2023-01-19T13:17:54.301Z,4.67
2023-01-19T13:20:28.413Z,5.10
2023-01-19T13:23:23.314Z,4.97
2023-01-19T13:26:03.335Z,5.13
2023-01-19T13:28:39.172Z,6.03
2023-01-19T13:31:06.985Z,5.30
2023-01-19T13:33:48.913Z,6.00
2023-01-19T13:36:22.567Z,6.13
2023-01-19T13:38:51.418Z,6.20
2023-01-19T13:41:22.681Z,4.82
2023-01-19T13:43:56.686Z,4.57
2023-01-19T13:46:26.277Z,5.17
2023-01-19T13:48:55.813Z,5.55
2023-01-19T13:51:23.882Z,4.63
2023-01-19T13:53:54.944Z,5.07
2023-01-19T13:56:23.347Z,4.93
2023-01-19T13:59:09.668Z,5.23
2023-01-19T14:01:38.147Z,5.00
2023-01-19T14:04:05.191Z,4.43
2023-01-19T14:06:37.262Z,5.03
2023-01-19T14:09:08.620Z,4.87
2023-01-19T14:11:35.249Z,4.90
2023-01-19T14:14:02.789Z,4.97
2023-01-19T14:16:29.517Z,6.20
2023-01-19T14:19:00.617Z,4.63
2023-01-19T14:21:39.144Z,4.53
2023-01-19T14:24:08.023Z,4.53
2023-01-19T14:26:45.893Z,4.40
2023-01-19T14:29:23.781Z,5.07
2023-01-19T14:31:52.931Z,4.80
2023-01-19T14:34:30.692Z,4.18
2023-01-19T14:36:59.157Z,5.07
2023-01-19T14:39:27.988Z,6.27
2023-01-19T14:41:58.787Z,4.18
2023-01-19T14:44:29.697Z,5.13
2023-01-19T14:46:58.063Z,3.80
2023-01-19T14:49:32.381Z,4.43
2023-01-19T14:52:02.323Z,4.50
2023-01-19T14:54:33.799Z,4.73
2023-01-19T14:57:00.386Z,4.90
2023-01-19T14:59:27.010Z,5.17
2023-01-19T15:01:53.719Z,4.13
2023-01-19T15:04:20.439Z,4.47
2023-01-19T15:06:48.359Z,4.37
2023-01-19T15:09:16.319Z,4.03
2023-01-19T15:11:45.028Z,4.30
2023-01-19T15:14:14.461Z,4.60
2023-01-19T15:16:41.504Z,4.10
2023-01-19T15:19:11.177Z,4.03
2023-01-19T15:24:09.547Z,4.60
2023-01-19T15:26:39.265Z,3.70
2023-01-19T15:31:40.790Z,4.83
2023-01-19T15:34:09.942Z,3.63
2023-01-19T15:36:36.451Z,3.67
2023-01-19T15:39:03.067Z,3.90
2023-01-19T15:41:30.165Z,3.50
2023-01-19T15:43:58.790Z,4.10
2023-01-19T15:46:25.816Z,3.63
2023-01-19T15:48:53.304Z,4.03
2023-01-19T15:51:21.459Z,3.63
2023-01-19T15:53:49.986Z,3.87
2023-01-19T15:56:18.142Z,3.67
2023-01-19T15:58:44.700Z,3.63
2023-01-19T16:01:15.011Z,3.63
2023-01-19T16:03:42.469Z,3.70
2023-01-19T16:06:09.893Z,3.37
2023-01-19T16:08:37.490Z,3.33
2023-01-19T16:11:05.714Z,3.80
2023-01-19T16:13:32.574Z,3.40
2023-01-19T16:16:02.187Z,3.77
2023-01-19T16:18:30.189Z,3.28
2023-01-19T16:20:56.900Z,3.30
2023-01-19T16:23:23.490Z,3.57
2023-01-19T16:25:57.954Z,3.53
2023-01-19T16:28:25.530Z,3.77
2023-01-19T16:30:52.672Z,4.00
2023-01-19T16:33:20.717Z,3.40
2023-01-19T16:35:49.107Z,3.30
2023-01-19T16:38:15.660Z,3.10
2023-01-19T16:40:43.696Z,3.50
2023-01-19T16:43:10.238Z,3.30
2023-01-19T16:45:55.472Z,3.83
2023-01-19T16:48:22.062Z,3.17
2023-01-19T16:50:57.951Z,3.30
2023-01-19T16:53:24.487Z,3.20
2023-01-19T16:55:52.945Z,3.63
2023-01-19T16:58:19.731Z,3.33
2023-01-19T17:00:46.318Z,3.00
2023-01-19T17:03:13.377Z,3.40
2023-01-19T17:05:40.078Z,4.43
2023-01-19T17:08:07.990Z,2.90
2023-01-19T17:10:35.979Z,3.03
2023-01-19T17:13:03.913Z,3.00
2023-01-19T17:15:30.675Z,2.77
2023-01-19T17:17:57.265Z,3.30
2023-01-19T17:20:23.774Z,2.73
2023-01-19T17:22:50.400Z,4.33
2023-01-19T17:25:18.369Z,2.93
2023-01-19T17:27:44.943Z,2.87
2023-01-19T17:30:12.173Z,3.20
2023-01-19T17:32:38.830Z,3.00
2023-01-19T17:35:06.092Z,2.90
2023-01-19T17:37:32.623Z,3.00
2023-01-19T17:39:59.157Z,2.97
2023-01-19T17:42:27.306Z,3.30
2023-01-19T17:44:53.912Z,3.17
2023-01-19T17:47:25.353Z,3.10
2023-01-19T17:49:52.246Z,2.70
2023-01-19T17:52:18.881Z,2.67
2023-01-19T17:54:45.437Z,2.90
2023-01-19T17:57:12.020Z,3.03
2023-01-19T17:59:43.266Z,2.70
2023-01-19T18:02:10.316Z,3.00
2023-01-19T18:04:37.644Z,3.20
2023-01-19T18:07:04.178Z,3.23
2023-01-19T18:09:30.693Z,2.53
2023-01-19T18:11:57.462Z,2.80
2023-01-19T18:14:23.993Z,3.13
2023-01-19T18:16:51.831Z,2.97
2023-01-19T18:19:21.193Z,2.97
2023-01-19T18:21:48.422Z,3.45
2023-01-19T18:24:14.959Z,3.57
2023-01-19T18:26:42.516Z,3.37
2023-01-19T18:29:09.567Z,3.10
2023-01-19T18:31:36.172Z,3.47
2023-01-19T18:34:04.167Z,3.07
2023-01-19T18:36:34.193Z,3.90
2023-01-19T18:39:01.204Z,3.23
2023-01-19T18:41:29.880Z,3.40
2023-01-19T18:43:58.142Z,3.47
2023-01-19T18:46:25.355Z,3.40
2023-01-19T18:48:52.123Z,3.10
2023-01-19T18:51:19.995Z,3.90
2023-01-19T18:53:46.569Z,3.37
2023-01-19T18:56:14.326Z,3.57
2023-01-19T18:58:41.440Z,3.80
2023-01-19T19:01:18.184Z,3.70
2023-01-19T19:03:45.074Z,3.90
2023-01-19T19:06:11.739Z,4.00
2023-01-19T19:08:39.913Z,6.83
2023-01-19T19:11:07.417Z,7.90
2023-01-19T19:13:33.965Z,5.13
2023-01-19T19:16:03.420Z,7.80
2023-01-19T19:18:30.892Z,7.65
2023-01-19T19:20:57.436Z,7.40
2023-01-19T19:23:24.229Z,7.73
2023-01-19T19:25:52.151Z,7.03
2023-01-19T19:28:18.734Z,7.27
2023-01-19T19:30:46.514Z,8.30
2023-01-19T19:33:13.132Z,7.33
2023-01-19T19:35:39.637Z,6.73
2023-01-19T19:38:06.191Z,7.40
2023-01-19T19:40:32.753Z,7.60
2023-01-19T19:43:00.666Z,6.83
2023-01-19T19:45:27.297Z,7.07
2023-01-19T19:47:53.865Z,7.00
2023-01-19T19:50:20.400Z,6.77
2023-01-19T19:52:47.012Z,7.50
2023-01-19T19:55:13.680Z,7.07
2023-01-19T19:57:40.277Z,6.20
2023-01-19T20:00:09.634Z,6.37
2023-01-19T20:02:36.784Z,5.38
2023-01-19T20:05:04.217Z,6.70
2023-01-19T20:07:30.869Z,6.57
2023-01-19T20:09:57.485Z,7.20
2023-01-19T20:12:24.147Z,5.93
2023-01-19T20:14:50.745Z,6.63
2023-01-19T20:17:19.014Z,5.70
2023-01-19T20:19:47.526Z,5.63
2023-01-19T20:22:14.111Z,5.30
2023-01-19T20:24:40.728Z,5.17
2023-01-19T20:27:07.343Z,4.97
2023-01-19T20:29:33.903Z,5.33
2023-01-19T20:32:00.577Z,5.17
2023-01-19T20:34:33.029Z,6.13
2023-01-19T20:37:01.291Z,4.90
2023-01-19T20:39:30.003Z,4.53
2023-01-19T20:41:56.725Z,4.73
2023-01-19T20:44:25.508Z,4.87
2023-01-19T20:46:53.354Z,4.90
2023-01-19T20:49:20.565Z,5.10
2023-01-19T20:51:48.669Z,4.77
2023-01-19T20:54:17.532Z,5.33
2023-01-19T20:56:44.664Z,5.07
2023-01-19T20:59:12.320Z,4.60
2023-01-19T21:01:39.842Z,4.50
2023-01-19T21:04:06.588Z,4.33
2023-01-19T21:06:33.311Z,4.50
2023-01-19T21:09:01.546Z,4.17
2023-01-19T21:11:28.132Z,5.63
2023-01-19T21:13:57.790Z,3.90
2023-01-19T21:18:51.800Z,4.60
2023-01-19T21:21:29.925Z,5.87
2023-01-19T21:23:58.356Z,4.28
2023-01-19T21:26:26.325Z,4.13
2023-01-19T21:28:52.855Z,5.13
2023-01-19T21:31:21.298Z,4.70
2023-01-19T21:33:49.145Z,4.30
2023-01-19T21:36:15.784Z,4.37
2023-01-19T21:38:42.324Z,3.83
2023-01-19T21:41:12.518Z,4.63
2023-01-19T21:43:42.596Z,4.00
2023-01-19T21:46:10.337Z,4.60
2023-01-19T21:48:37.032Z,3.93
2023-01-19T21:51:03.943Z,4.40
2023-01-19T21:53:30.450Z,3.83
2023-01-19T21:55:58.507Z,4.10
2023-01-19T21:58:25.043Z,4.37
2023-01-19T22:00:58.995Z,4.17
2023-01-19T22:03:27.235Z,3.73
2023-01-19T22:05:53.870Z,4.10
2023-01-19T22:08:20.455Z,3.97
2023-01-19T22:10:47.003Z,3.70
2023-01-19T22:13:14.017Z,3.40
2023-01-19T22:15:40.604Z,3.10
2023-01-19T22:18:08.495Z,3.33
2023-01-19T22:20:35.057Z,3.50
2023-01-19T22:23:01.621Z,3.20
2023-01-19T22:25:28.173Z,3.43
2023-01-19T22:27:55.035Z,4.07
2023-01-19T22:30:21.658Z,3.47
2023-01-19T22:32:48.278Z,3.50
2023-01-19T22:35:16.438Z,3.07
2023-01-19T22:37:43.006Z,2.83
2023-01-19T22:40:11.109Z,3.43
2023-01-19T22:42:37.664Z,3.23
2023-01-19T22:45:04.845Z,2.97
2023-01-19T22:47:31.426Z,1.93
2023-01-19T22:49:57.960Z,2.67
2023-01-19T22:52:25.899Z,2.97
2023-01-19T22:54:56.126Z,2.77
2023-01-19T22:57:22.697Z,3.00
2023-01-19T22:59:49.295Z,2.90
2023-01-19T23:02:16.014Z,2.70
2023-01-19T23:04:42.695Z,2.37
2023-01-19T23:07:09.740Z,2.50
2023-01-19T23:09:37.952Z,3.17
2023-01-19T23:12:05.068Z,2.80
2023-01-19T23:14:31.876Z,2.80
2023-01-19T23:16:58.429Z,2.63
2023-01-19T23:19:24.964Z,2.40
2023-01-19T23:21:52.619Z,1.90
2023-01-19T23:24:19.249Z,2.17
2023-01-19T23:26:48.676Z,2.40
2023-01-19T23:29:15.918Z,2.15
2023-01-19T23:31:44.496Z,3.07
2023-01-19T23:34:12.432Z,2.17
2023-01-19T23:36:40.839Z,2.53
2023-01-19T23:39:13.289Z,2.40
2023-01-19T23:41:40.051Z,2.40
2023-01-19T23:44:08.443Z,2.13
2023-01-19T23:46:35.219Z,2.30
2023-01-19T23:49:02.018Z,2.40
2023-01-19T23:51:31.054Z,2.43
2023-01-19T23:53:58.630Z,2.15
2023-01-19T23:56:27.580Z,2.00
2023-01-19T23:58:56.182Z,1.65
